Time;durP1;ratioP1;P1;durP2;ratioP2;P2;SDS_P1;SDS_P2;PMS_P1;PMS_P2;Temp;Humidity;BMP_temperature;BMP_pressure;BME280_temperature;BME280_humidity;BME280_pressure;Samples;Min_cycle;Max_cycle;Signal;HPM_P1;HPM_P2
2020/12/16 00:00:15;;;;;;;21.23;12.87;;;3.50;99.90;;;;;;4914255;28;20229;-84
2020/12/16 00:02:41;;;;;;;21.30;15.73;;;3.40;99.90;;;;;;4913713;29;20226;-84
2020/12/16 00:05:33;;;;;;;26.50;18.03;;;3.50;99.90;;;;;;4896699;28;20480;-84
2020/12/16 00:08:02;;;;;;;22.70;14.30;;;3.70;99.90;;;;;;4861205;29;20396;-84
2020/12/16 00:10:27;;;;;;;19.60;13.00;;;3.90;99.90;;;;;;4877969;29;22101;-84
2020/12/16 00:12:55;;;;;;;16.00;13.67;;;3.80;99.90;;;;;;4830194;29;20425;-84
2020/12/16 00:15:25;;;;;;;24.60;14.63;;;3.60;99.90;;;;;;4858214;29;20258;-84
2020/12/16 00:17:52;;;;;;;16.80;14.80;;;3.40;99.90;;;;;;4900760;29;20432;-83
2020/12/16 00:20:19;;;;;;;19.47;14.87;;;3.30;99.90;;;;;;4885043;29;20959;-83
2020/12/16 00:22:46;;;;;;;26.60;14.60;;;3.60;99.90;;;;;;4901993;28;20429;-84
2020/12/16 00:25:14;;;;;;;22.83;14.57;;;3.70;99.90;;;;;;4910138;28;20495;-84
2020/12/16 00:27:40;;;;;;;16.77;12.90;;;3.60;99.90;;;;;;4974653;28;20441;-84
2020/12/16 00:30:33;;;;;;;21.70;16.07;;;3.80;99.90;;;;;;4963804;28;20442;-83
2020/12/16 00:33:01;;;;;;;23.07;14.80;;;3.80;99.90;;;;;;4989743;28;20513;-84
2020/12/16 00:35:30;;;;;;;22.03;13.93;;;3.70;99.90;;;;;;4965495;28;20580;-84
2020/12/16 00:38:24;;;;;;;23.00;16.20;;;3.80;99.90;;;;;;4964309;28;20452;-84
2020/12/16 00:40:52;;;;;;;19.70;13.50;;;3.70;99.90;;;;;;4943283;28;20419;-84
2020/12/16 00:43:17;;;;;;;23.60;14.43;;;3.60;99.90;;;;;;4928339;28;20477;-84
2020/12/16 00:45:44;;;;;;;29.40;14.50;;;3.60;99.90;;;;;;4911265;28;20898;-84
2020/12/16 00:48:12;;;;;;;18.47;13.80;;;3.70;99.90;;;;;;4928481;28;20216;-83
2020/12/16 00:50:38;;;;;;;15.80;13.17;;;3.60;99.90;;;;;;4942715;28;20420;-84
2020/12/16 00:53:34;;;;;;;18.63;13.60;;;3.50;99.90;;;;;;4917958;28;20452;-84
2020/12/16 00:56:05;;;;;;;18.50;12.67;;;3.40;99.90;;;;;;4905293;29;20277;-84
2020/12/16 00:58:31;;;;;;;15.43;12.10;;;3.40;99.90;;;;;;4887835;29;20377;-84
2020/12/16 01:00:57;;;;;;;19.67;13.60;;;3.50;99.90;;;;;;4889122;29;20456;-84
2020/12/16 01:03:48;;;;;;;17.67;13.33;;;3.80;99.90;;;;;;4887827;29;20300;-84
2020/12/16 01:06:15;;;;;;;16.40;13.20;;;4.00;99.90;;;;;;4887756;29;20227;-84
2020/12/16 01:08:42;;;;;;;17.17;13.33;;;4.20;99.90;;;;;;4887060;28;20505;-84
2020/12/16 01:11:08;;;;;;;15.57;11.63;;;4.30;99.90;;;;;;4921332;28;20433;-84
2020/12/16 01:14:08;;;;;;;17.03;14.40;;;4.50;99.90;;;;;;4921617;28;20435;-84
2020/12/16 01:16:38;;;;;;;14.33;12.33;;;4.70;99.90;;;;;;4935898;28;20426;-84
2020/12/16 01:19:31;;;;;;;16.43;12.63;;;4.80;99.90;;;;;;4914724;28;20431;-84
2020/12/16 01:21:58;;;;;;;17.83;11.90;;;4.80;99.90;;;;;;4925999;28;20440;-84
2020/12/16 01:24:26;;;;;;;16.50;12.80;;;4.90;99.90;;;;;;4903745;28;20452;-84
2020/12/16 01:27:18;;;;;;;21.73;14.50;;;5.00;99.90;;;;;;4925179;28;20435;-84
2020/12/16 01:29:45;;;;;;;18.97;14.00;;;5.10;99.90;;;;;;4842711;29;20498;-84
2020/12/16 01:32:15;;;;;;;15.80;13.27;;;5.10;99.90;;;;;;4824135;29;20427;-84
2020/12/16 01:34:41;;;;;;;18.90;13.53;;;5.20;99.90;;;;;;4875782;29;20428;-84
2020/12/16 01:37:07;;;;;;;13.07;11.27;;;5.20;99.90;;;;;;4897722;29;20411;-84
2020/12/16 01:39:33;;;;;;;18.20;12.80;;;5.30;99.90;;;;;;4879159;29;22229;-84
2020/12/16 01:41:59;;;;;;;16.70;11.83;;;5.30;99.90;;;;;;4894771;29;20513;-84
2020/12/16 01:44:53;;;;;;;16.10;12.47;;;5.40;99.90;;;;;;4896345;29;20212;-84
2020/12/16 01:47:45;;;;;;;19.37;12.70;;;5.40;99.90;;;;;;4901266;29;20419;-84
2020/12/16 01:50:12;;;;;;;20.40;13.60;;;5.40;99.90;;;;;;4828070;29;20440;-84
2020/12/16 01:52:39;;;;;;;15.00;13.23;;;5.50;99.90;;;;;;4832210;29;21004;-84
2020/12/16 01:55:10;;;;;;;17.47;13.33;;;5.50;99.90;;;;;;4825008;29;20612;-84
2020/12/16 01:57:39;;;;;;;18.97;12.53;;;5.60;99.90;;;;;;4844178;29;20490;-84
2020/12/16 02:00:13;;;;;;;13.73;11.30;;;5.60;99.90;;;;;;4899506;29;20420;-84
2020/12/16 02:02:52;;;;;;;16.80;12.80;;;5.50;99.90;;;;;;4886482;29;20389;-84
2020/12/16 02:05:20;;;;;;;19.83;13.13;;;5.40;99.90;;;;;;4900307;29;20977;-84
2020/12/16 02:07:47;;;;;;;18.97;13.80;;;5.30;99.90;;;;;;4906091;29;20393;-84
2020/12/16 02:10:13;;;;;;;15.97;12.67;;;5.30;99.90;;;;;;4918801;29;20437;-84
2020/12/16 02:12:40;;;;;;;17.00;12.90;;;5.20;99.90;;;;;;4936592;28;20537;-83
2020/12/16 02:15:07;;;;;;;17.90;12.17;;;5.10;99.90;;;;;;4985921;22;20456;-78
2020/12/16 02:17:33;;;;;;;18.67;13.33;;;5.00;99.90;;;;;;5019085;28;20416;-78
2020/12/16 02:20:01;;;;;;;19.10;13.83;;;4.90;99.90;;;;;;5015962;28;20471;-77
2020/12/16 02:22:27;;;;;;;19.53;13.63;;;4.70;99.90;;;;;;5018785;28;20461;-77
2020/12/16 02:25:06;;;;;;;17.60;12.40;;;4.50;99.90;;;;;;5000254;28;20833;-77
2020/12/16 02:27:33;;;;;;;16.10;12.70;;;4.60;99.90;;;;;;5015568;28;21038;-77
2020/12/16 02:30:00;;;;;;;18.70;13.47;;;4.70;99.90;;;;;;5015276;28;20447;-77
2020/12/16 02:32:28;;;;;;;15.20;12.50;;;4.70;99.90;;;;;;5017266;28;20792;-77
2020/12/16 02:34:55;;;;;;;15.23;13.50;;;4.50;99.90;;;;;;5031581;28;21215;-77
2020/12/16 02:37:21;;;;;;;17.70;14.60;;;4.30;99.90;;;;;;5001688;28;20412;-77
2020/12/16 02:39:49;;;;;;;18.87;14.10;;;4.40;99.90;;;;;;5018709;28;20446;-78
2020/12/16 02:42:26;;;;;;;21.10;15.37;;;4.60;99.90;;;;;;5027724;28;20449;-78
2020/12/16 02:44:53;;;;;;;20.20;14.87;;;4.70;99.90;;;;;;5017426;28;21080;-78
2020/12/16 02:47:20;;;;;;;20.43;15.70;;;4.70;99.90;;;;;;5021060;28;20416;-78
2020/12/16 02:49:46;;;;;;;19.23;13.70;;;4.50;99.90;;;;;;5013952;28;20459;-77
2020/12/16 02:52:12;;;;;;;19.27;13.13;;;4.30;99.90;;;;;;5017956;28;20982;-77
2020/12/16 02:54:38;;;;;;;17.20;13.37;;;4.10;99.90;;;;;;4999608;28;20420;-78
2020/12/16 02:57:04;;;;;;;19.93;14.03;;;3.90;99.90;;;;;;5016556;28;21254;-78
2020/12/16 02:59:30;;;;;;;23.50;13.80;;;3.90;99.90;;;;;;5015170;28;20538;-78
2020/12/16 03:01:56;;;;;;;19.03;14.97;;;3.80;99.90;;;;;;5016021;28;20285;-77
2020/12/16 03:04:23;;;;;;;18.90;11.53;;;3.60;99.90;;;;;;5016395;28;21673;-78
2020/12/16 03:06:52;;;;;;;19.63;13.70;;;3.70;99.90;;;;;;5020184;28;20870;-77
2020/12/16 03:09:20;;;;;;;17.37;14.30;;;3.60;99.90;;;;;;5015278;28;20411;-77
2020/12/16 03:11:53;;;;;;;20.00;14.77;;;3.40;99.90;;;;;;5003200;28;20460;-78
2020/12/16 03:14:19;;;;;;;19.67;13.50;;;3.50;99.90;;;;;;5011736;28;20436;-78
2020/12/16 03:16:45;;;;;;;24.87;13.90;;;3.60;99.90;;;;;;4998343;28;20423;-78
2020/12/16 03:19:11;;;;;;;25.53;15.67;;;3.80;99.90;;;;;;5017815;28;20956;-77
2020/12/16 03:21:38;;;;;;;20.10;15.10;;;3.90;99.90;;;;;;5015511;28;20424;-77
2020/12/16 03:24:03;;;;;;;35.67;17.00;;;3.90;99.90;;;;;;5003013;28;20956;-78
2020/12/16 03:26:30;;;;;;;21.57;15.17;;;3.80;99.90;;;;;;5020620;28;20525;-78
2020/12/16 03:28:58;;;;;;;21.53;15.70;;;3.80;99.90;;;;;;5023354;28;20217;-78
2020/12/16 03:31:25;;;;;;;25.00;15.57;;;3.80;99.90;;;;;;5013485;28;20395;-78
2020/12/16 03:33:51;;;;;;;25.20;17.77;;;3.90;99.90;;;;;;5006095;28;20522;-78
2020/12/16 03:36:20;;;;;;;31.13;19.37;;;4.20;99.90;;;;;;5021359;28;20428;-78
2020/12/16 03:38:47;;;;;;;23.57;16.70;;;4.50;99.90;;;;;;5022771;28;21295;-78
2020/12/16 03:41:15;;;;;;;30.27;17.20;;;4.70;99.90;;;;;;5022376;28;20566;-77
2020/12/16 03:43:45;;;;;;;23.87;18.20;;;4.60;99.90;;;;;;4992892;28;20401;-77
2020/12/16 03:46:11;;;;;;;22.00;15.17;;;4.60;99.90;;;;;;5022288;28;20958;-78
2020/12/16 03:48:40;;;;;;;21.00;15.67;;;4.10;99.90;;;;;;5023904;28;20587;-79
2020/12/16 03:51:11;;;;;;;22.10;15.70;;;3.80;99.90;;;;;;5007832;28;20752;-79
2020/12/16 03:53:37;;;;;;;24.20;16.67;;;4.00;99.90;;;;;;5024159;28;20417;-78
2020/12/16 03:56:12;;;;;;;27.33;16.70;;;3.90;99.90;;;;;;5022773;28;21383;-78
2020/12/16 03:58:45;;;;;;;30.63;18.17;;;4.00;99.90;;;;;;5030140;28;20383;-78
2020/12/16 04:01:13;;;;;;;24.33;17.13;;;4.00;99.90;;;;;;5025982;28;20428;-78
2020/12/16 04:03:39;;;;;;;25.87;17.90;;;3.90;99.90;;;;;;5026812;28;20419;-78
2020/12/16 04:06:09;;;;;;;35.90;20.53;;;4.00;99.90;;;;;;5009387;28;20577;-78
2020/12/16 04:08:37;;;;;;;32.67;20.50;;;4.50;99.90;;;;;;5013740;28;20746;-78
2020/12/16 04:11:15;;;;;;;30.47;22.40;;;4.90;99.90;;;;;;5025055;28;20897;-78
2020/12/16 04:13:40;;;;;;;36.57;22.00;;;5.10;99.90;;;;;;5020558;28;20397;-78
2020/12/16 04:16:10;;;;;;;56.30;21.53;;;5.60;99.90;;;;;;5005157;28;20410;-78
2020/12/16 04:18:35;;;;;;;29.90;19.97;;;5.80;99.90;;;;;;5048895;28;20397;-78
2020/12/16 04:21:05;;;;;;;32.50;18.87;;;5.70;99.90;;;;;;5027016;28;20454;-78
2020/12/16 04:23:56;;;;;;;28.60;19.07;;;5.70;99.90;;;;;;5031865;28;20237;-78
2020/12/16 04:26:25;;;;;;;27.17;18.00;;;5.50;99.90;;;;;;4919374;28;20448;-78
2020/12/16 04:28:52;;;;;;;29.00;19.07;;;5.20;99.90;;;;;;4914692;28;20460;-78
2020/12/16 04:31:20;;;;;;;26.00;17.73;;;4.90;99.90;;;;;;4946990;28;20413;-78
2020/12/16 04:34:13;;;;;;;27.47;17.13;;;4.80;99.90;;;;;;4945506;28;20391;-78
2020/12/16 04:36:40;;;;;;;25.40;17.97;;;4.60;99.90;;;;;;4881919;29;20461;-78
2020/12/16 04:39:08;;;;;;;24.13;17.93;;;4.70;99.90;;;;;;4895363;29;20408;-78
2020/12/16 04:42:00;;;;;;;27.60;18.00;;;4.50;99.90;;;;;;4906103;29;20433;-78
2020/12/16 04:44:27;;;;;;;18.77;15.23;;;4.10;99.90;;;;;;4859649;29;20504;-78
2020/12/16 04:46:55;;;;;;;20.83;14.93;;;3.90;99.90;;;;;;4840061;29;20413;-78
2020/12/16 04:49:47;;;;;;;20.43;15.00;;;3.60;99.90;;;;;;4825592;29;20479;-78
2020/12/16 04:52:19;;;;;;;21.17;15.10;;;3.50;99.90;;;;;;4804429;29;20522;-78
2020/12/16 04:54:46;;;;;;;25.03;16.30;;;3.60;99.90;;;;;;4815838;29;20429;-78
2020/12/16 04:57:13;;;;;;;23.93;16.10;;;3.40;99.90;;;;;;4802364;29;20481;-78
2020/12/16 04:59:38;;;;;;;24.07;15.10;;;3.30;99.90;;;;;;4818256;29;20856;-78
2020/12/16 05:02:04;;;;;;;28.93;17.00;;;3.40;99.90;;;;;;4804408;29;20408;-78
2020/12/16 05:04:31;;;;;;;22.03;15.93;;;3.40;99.90;;;;;;4818941;29;20236;-78
2020/12/16 05:06:57;;;;;;;26.30;15.97;;;3.50;99.90;;;;;;4808813;29;20316;-78
2020/12/16 05:09:22;;;;;;;23.13;14.20;;;3.30;99.90;;;;;;4821157;29;21636;-78
2020/12/16 05:11:52;;;;;;;20.00;15.50;;;3.20;99.90;;;;;;4808621;29;20824;-78
2020/12/16 05:14:21;;;;;;;23.10;14.60;;;3.10;99.90;;;;;;4896272;29;20228;-78
2020/12/16 05:17:05;;;;;;;21.93;14.70;;;3.00;99.90;;;;;;4910140;29;20375;-78
2020/12/16 05:19:39;;;;;;;19.97;15.03;;;2.90;99.90;;;;;;4868060;29;20437;-78
2020/12/16 05:22:24;;;;;;;19.10;14.10;;;2.80;99.90;;;;;;4927025;28;20473;-78
2020/12/16 05:25:16;;;;;;;17.20;13.70;;;2.70;99.90;;;;;;4927130;28;20444;-78
2020/12/16 05:27:42;;;;;;;20.60;15.77;;;2.60;99.90;;;;;;4866426;29;21030;-79
2020/12/16 05:30:09;;;;;;;27.00;19.87;;;2.80;99.90;;;;;;4930522;28;20860;-78
2020/12/16 05:32:36;;;;;;;39.90;22.53;;;2.70;99.90;;;;;;4950830;28;20430;-78
2020/12/16 05:35:28;;;;;;;27.03;20.93;;;2.60;99.90;;;;;;4950854;28;20429;-78
2020/12/16 05:38:05;;;;;;;36.60;23.03;;;2.60;99.90;;;;;;4950783;28;20399;-78
2020/12/16 05:40:37;;;;;;;42.10;22.77;;;2.70;99.90;;;;;;4966197;28;20506;-78
2020/12/16 05:43:05;;;;;;;44.40;24.17;;;3.00;99.90;;;;;;4952697;28;20542;-78
2020/12/16 05:45:39;;;;;;;36.90;21.53;;;3.00;99.90;;;;;;4934521;28;20562;-78
2020/12/16 05:48:11;;;;;;;28.40;19.97;;;3.10;99.90;;;;;;4935513;28;20486;-78
2020/12/16 05:50:54;;;;;;;25.97;20.33;;;3.20;99.90;;;;;;4930813;28;20588;-78
2020/12/16 05:53:22;;;;;;;27.60;18.47;;;3.10;99.90;;;;;;4948708;28;20426;-78
2020/12/16 05:55:55;;;;;;;25.63;18.83;;;3.00;99.90;;;;;;4948967;28;21194;-78
2020/12/16 05:58:24;;;;;;;29.53;17.50;;;2.90;99.90;;;;;;4967305;28;20590;-78
2020/12/16 06:00:51;;;;;;;25.37;17.60;;;2.90;99.90;;;;;;4967904;28;20409;-78
2020/12/16 06:03:20;;;;;;;30.00;18.07;;;2.80;99.90;;;;;;4933317;28;20419;-78
2020/12/16 06:05:50;;;;;;;34.47;19.90;;;2.80;99.90;;;;;;5010095;28;20938;-78
2020/12/16 06:08:17;;;;;;;29.70;19.37;;;2.80;99.90;;;;;;5033495;28;20380;-78
2020/12/16 06:10:46;;;;;;;24.40;17.70;;;2.70;99.90;;;;;;5021313;28;20448;-78
2020/12/16 06:13:13;;;;;;;33.20;20.80;;;2.80;99.90;;;;;;5012309;28;21112;-78
2020/12/16 06:16:03;;;;;;;31.13;19.73;;;2.90;99.90;;;;;;5013320;28;20417;-78
2020/12/16 06:18:37;;;;;;;27.07;19.57;;;3.00;99.90;;;;;;5032941;28;20544;-78
2020/12/16 06:21:05;;;;;;;27.37;16.87;;;3.10;99.90;;;;;;5029107;28;20395;-78
2020/12/16 06:23:38;;;;;;;39.63;17.63;;;3.20;99.90;;;;;;5027007;28;20810;-78
2020/12/16 06:26:06;;;;;;;23.17;17.23;;;3.00;99.90;;;;;;5025875;28;20422;-78
2020/12/16 06:28:33;;;;;;;21.57;15.90;;;2.80;99.90;;;;;;5026617;28;23159;-78
2020/12/16 06:31:28;;;;;;;31.87;19.60;;;2.70;99.90;;;;;;5011899;28;20421;-78
2020/12/16 06:34:12;;;;;;;27.30;17.07;;;2.90;99.90;;;;;;5011036;28;20393;-78
2020/12/16 06:36:40;;;;;;;23.23;17.37;;;2.90;99.90;;;;;;5027040;28;20456;-79
2020/12/16 06:39:18;;;;;;;24.60;15.90;;;3.00;99.90;;;;;;5014940;28;20462;-78
2020/12/16 06:42:26;;;;;;;24.30;16.40;;;2.90;99.90;;;;;;5024784;28;21651;-79
2020/12/16 06:45:14;;;;;;;22.33;15.80;;;2.60;99.90;;;;;;4932355;28;20869;-78
2020/12/16 06:47:40;;;;;;;45.87;29.47;;;2.80;99.90;;;;;;4950214;28;20429;-78
2020/12/16 06:50:19;;;;;;;47.20;28.27;;;2.60;99.90;;;;;;4949702;28;20412;-78
2020/12/16 06:52:46;;;;;;;28.47;17.60;;;2.60;99.90;;;;;;4955694;28;20219;-78
2020/12/16 06:55:12;;;;;;;24.63;15.47;;;2.60;99.90;;;;;;4951711;28;20465;-78
2020/12/16 06:57:47;;;;;;;25.47;15.30;;;2.70;99.90;;;;;;4920559;28;20846;-78
2020/12/16 07:00:27;;;;;;;24.97;16.37;;;2.80;99.90;;;;;;4953154;28;20253;-78
2020/12/16 07:02:52;;;;;;;26.67;15.20;;;3.10;99.90;;;;;;4951723;28;20403;-78
2020/12/16 07:05:45;;;;;;;27.23;17.67;;;3.30;99.90;;;;;;4938692;28;20968;-79
2020/12/16 07:08:26;;;;;;;26.73;16.43;;;3.80;99.90;;;;;;4948947;28;20219;-78
2020/12/16 07:10:51;;;;;;;30.37;17.30;;;3.90;99.90;;;;;;4952458;28;20438;-78
2020/12/16 07:13:21;;;;;;;31.60;18.77;;;3.90;99.90;;;;;;4952046;28;20416;-78
2020/12/16 07:16:07;;;;;;;40.37;19.73;;;3.90;99.90;;;;;;4939051;28;20225;-78
2020/12/16 07:18:44;;;;;;;26.47;18.80;;;3.90;99.90;;;;;;4940738;28;21046;-79
2020/12/16 07:21:11;;;;;;;41.43;25.87;;;3.90;99.90;;;;;;4970974;28;20778;-78
2020/12/16 07:23:46;;;;;;;28.00;19.00;;;3.90;99.90;;;;;;5012922;28;20446;-79
2020/12/16 07:26:34;;;;;;;28.83;20.67;;;4.00;99.90;;;;;;5013656;28;20446;-79
2020/12/16 07:29:23;;;;;;;30.20;20.50;;;4.00;99.90;;;;;;5027491;28;20426;-78
2020/12/16 07:31:54;;;;;;;27.50;19.57;;;4.10;99.90;;;;;;5028967;28;20402;-78
2020/12/16 07:34:21;;;;;;;24.17;17.03;;;4.20;99.90;;;;;;5014479;28;20433;-79
2020/12/16 07:37:00;;;;;;;31.90;21.30;;;4.30;99.90;;;;;;5021548;28;20970;-78
2020/12/16 07:39:28;;;;;;;30.63;20.10;;;4.40;99.90;;;;;;5033333;28;20427;-78
2020/12/16 07:41:59;;;;;;;29.17;18.60;;;4.50;99.90;;;;;;5053678;28;20412;-78
2020/12/16 07:44:26;;;;;;;29.87;19.47;;;4.60;99.90;;;;;;5022722;28;21948;-78
2020/12/16 07:46:52;;;;;;;25.57;16.57;;;4.70;99.90;;;;;;5015950;28;20429;-78
2020/12/16 07:49:20;;;;;;;26.13;17.20;;;4.70;99.90;;;;;;5046749;28;20445;-78
2020/12/16 07:51:47;;;;;;;30.60;19.80;;;4.70;99.90;;;;;;5030447;28;21242;-79
2020/12/16 07:54:21;;;;;;;30.30;20.57;;;4.70;99.90;;;;;;5029355;28;21269;-78
2020/12/16 07:56:49;;;;;;;26.10;19.70;;;4.70;99.90;;;;;;5026056;28;20972;-78
2020/12/16 07:59:15;;;;;;;33.10;21.63;;;4.60;99.90;;;;;;5013418;28;20601;-78
2020/12/16 08:01:41;;;;;;;32.30;24.27;;;4.50;99.90;;;;;;4996830;28;20415;-79
2020/12/16 08:04:14;;;;;;;32.00;23.17;;;4.60;99.90;;;;;;5001567;28;20435;-78
2020/12/16 08:06:42;;;;;;;27.30;19.67;;;4.70;99.90;;;;;;5046860;28;20293;-78
2020/12/16 08:09:09;;;;;;;31.97;20.87;;;4.90;99.90;;;;;;5020284;28;20430;-79
2020/12/16 08:11:34;;;;;;;26.60;18.10;;;4.90;99.90;;;;;;5013813;28;20430;-78
2020/12/16 08:14:07;;;;;;;27.37;18.77;;;4.90;99.90;;;;;;4993730;28;20585;-78
2020/12/16 08:16:34;;;;;;;25.97;18.23;;;4.80;99.90;;;;;;5049426;28;20221;-78
2020/12/16 08:19:23;;;;;;;29.43;20.13;;;4.80;99.90;;;;;;5015995;28;20427;-77
2020/12/16 08:21:51;;;;;;;31.67;19.83;;;5.20;99.90;;;;;;4950486;28;20412;-77
2020/12/16 08:24:16;;;;;;;27.50;19.30;;;6.50;99.90;;;;;;4916723;28;20556;-78
2020/12/16 08:27:08;;;;;;;25.60;19.03;;;6.80;99.90;;;;;;4901843;28;20519;-78
2020/12/16 08:29:37;;;;;;;26.70;20.10;;;6.90;99.90;;;;;;4879599;29;20210;-78
2020/12/16 08:32:07;;;;;;;27.43;18.33;;;6.90;99.90;;;;;;4892201;29;21417;-77
2020/12/16 08:34:41;;;;;;;30.30;19.13;;;6.60;99.90;;;;;;4892725;29;20489;-77
2020/12/16 08:37:10;;;;;;;28.17;20.40;;;6.50;99.90;;;;;;4879453;29;20520;-78
2020/12/16 08:39:42;;;;;;;21.40;17.30;;;6.50;99.90;;;;;;4892898;29;20418;-79
2020/12/16 08:42:11;;;;;;;21.17;16.53;;;6.20;99.90;;;;;;4893730;29;20438;-79
2020/12/16 08:44:38;;;;;;;30.50;19.83;;;6.30;99.90;;;;;;4878370;29;20430;-79
2020/12/16 08:47:31;;;;;;;23.73;19.30;;;7.40;99.90;;;;;;4863881;29;20393;-79
2020/12/16 08:49:57;;;;;;;24.23;18.70;;;7.70;99.90;;;;;;4866155;29;20514;-78
2020/12/16 08:53:11;;;;;;;27.27;19.33;;;7.80;99.90;;;;;;4879723;29;20458;-78
2020/12/16 08:55:38;;;;;;;27.00;19.67;;;7.80;99.90;;;;;;4836750;29;20209;-79
2020/12/16 08:58:05;;;;;;;27.50;18.87;;;8.40;99.90;;;;;;4849896;29;23100;-79
2020/12/16 09:00:35;;;;;;;26.37;20.47;;;8.50;99.90;;;;;;4845294;29;20382;-79
2020/12/16 09:03:07;;;;;;;32.93;22.40;;;8.40;99.90;;;;;;4873547;29;20509;-79
2020/12/16 09:05:36;;;;;;;27.17;21.40;;;9.00;99.90;;;;;;4883190;29;20451;-79
2020/12/16 09:08:14;;;;;;;24.30;18.57;;;9.60;99.90;;;;;;4894403;29;20559;-79
2020/12/16 09:11:07;;;;;;;22.23;16.13;;;9.40;99.90;;;;;;4913693;29;20460;-79
2020/12/16 09:13:34;;;;;;;18.70;13.77;;;9.70;99.90;;;;;;4840136;29;20461;-78
2020/12/16 09:16:00;;;;;;;20.10;13.80;;;9.80;99.90;;;;;;4841712;29;20517;-78
2020/12/16 09:18:28;;;;;;;14.70;12.10;;;10.70;99.90;;;;;;4841065;29;20621;-78
2020/12/16 09:20:55;;;;;;;15.17;12.53;;;10.30;99.90;;;;;;4843432;29;20378;-78
2020/12/16 09:23:26;;;;;;;12.77;10.33;;;10.50;99.90;;;;;;4825960;29;20428;-78
2020/12/16 09:25:55;;;;;;;13.90;10.70;;;10.20;99.90;;;;;;4833879;29;20430;-78
2020/12/16 09:28:31;;;;;;;11.37;9.20;;;10.30;99.90;;;;;;4877245;29;20427;-78
2020/12/16 09:30:56;;;;;;;11.90;9.03;;;10.80;99.90;;;;;;4876157;29;20458;-78
2020/12/16 09:33:23;;;;;;;11.00;8.80;;;12.20;99.90;;;;;;4939644;28;20434;-78
2020/12/16 09:35:53;;;;;;;8.50;6.90;;;13.30;99.90;;;;;;4905231;28;20212;-78
2020/12/16 09:38:19;;;;;;;9.87;7.90;;;14.70;99.90;;;;;;4947521;28;20552;-78
2020/12/16 09:41:11;;;;;;;10.17;7.27;;;16.20;99.90;;;;;;4933644;28;20487;-79
2020/12/16 09:44:03;;;;;;;12.13;6.57;;;16.50;99.90;;;;;;4927173;28;20410;-79
2020/12/16 09:46:29;;;;;;;8.70;7.00;;;16.80;99.90;;;;;;4876824;29;21821;-78
2020/12/16 09:49:03;;;;;;;6.87;6.20;;;17.50;99.90;;;;;;4853438;29;20435;-78
2020/12/16 09:51:34;;;;;;;8.60;7.20;;;18.40;99.90;;;;;;4886881;28;20233;-78
2020/12/16 09:54:00;;;;;;;8.30;6.77;;;19.10;99.90;;;;;;4910659;28;20427;-79
2020/12/16 09:56:27;;;;;;;7.63;6.93;;;20.10;99.90;;;;;;4934006;28;20428;-79
2020/12/16 09:58:54;;;;;;;6.70;6.10;;;21.50;99.90;;;;;;4930743;28;20434;-79
2020/12/16 10:01:21;;;;;;;7.27;6.57;;;21.80;99.90;;;;;;4913772;28;20451;-78
2020/12/16 10:03:50;;;;;;;9.97;5.43;;;22.80;99.90;;;;;;4936857;28;20417;-78
2020/12/16 10:06:17;;;;;;;6.50;5.30;;;23.10;99.90;;;;;;4916062;28;20429;-76
2020/12/16 10:08:44;;;;;;;8.43;6.53;;;23.00;99.90;;;;;;4925758;28;20445;-77
2020/12/16 10:11:39;;;;;;;8.50;5.83;;;20.80;99.90;;;;;;4915810;28;20453;-78
2020/12/16 10:14:04;;;;;;;7.27;6.67;;;17.40;99.90;;;;;;4855648;29;21065;-77
2020/12/16 10:16:32;;;;;;;6.40;5.83;;;15.00;99.90;;;;;;4839063;29;20473;-78
2020/12/16 10:19:00;;;;;;;7.17;6.07;;;14.00;99.90;;;;;;4841131;29;20223;-77
2020/12/16 10:21:52;;;;;;;6.60;5.97;;;13.70;99.90;;;;;;4844076;29;20464;-78
2020/12/16 10:24:19;;;;;;;8.03;6.43;;;13.40;99.90;;;;;;4868038;29;21329;-78
2020/12/16 10:27:13;;;;;;;6.87;6.17;;;13.70;99.90;;;;;;4878446;29;20438;-79
2020/12/16 10:29:39;;;;;;;7.90;6.27;;;16.10;99.90;;;;;;4854676;29;20441;-79
2020/12/16 10:32:35;;;;;;;5.50;5.00;;;19.30;99.90;;;;;;4822320;29;20455;-79
2020/12/16 10:35:01;;;;;;;6.40;5.80;;;22.00;99.90;;;;;;4869234;29;20545;-79
2020/12/16 10:37:28;;;;;;;5.10;4.60;;;23.90;99.90;;;;;;4843620;29;21309;-76
2020/12/16 10:40:20;;;;;;;5.90;4.70;;;24.20;97.40;;;;;;4863110;29;20467;-78
2020/12/16 10:43:12;;;;;;;6.97;6.00;;;21.80;97.00;;;;;;4841807;29;20475;-77
2020/12/16 10:45:39;;;;;;;6.60;4.83;;;20.70;99.90;;;;;;4823484;29;20413;-77
2020/12/16 10:48:32;;;;;;;4.90;4.40;;;21.30;99.90;;;;;;4837088;29;20437;-78
2020/12/16 10:51:01;;;;;;;6.60;4.83;;;20.50;99.90;;;;;;4812311;29;20399;-77
2020/12/16 10:53:27;;;;;;;5.17;4.67;;;18.40;99.90;;;;;;4790782;29;20458;-77
2020/12/16 10:55:54;;;;;;;6.20;5.60;;;16.40;99.90;;;;;;4833620;29;20490;-77
2020/12/16 10:58:46;;;;;;;5.20;4.43;;;14.80;99.90;;;;;;4778832;29;20324;-77
2020/12/16 11:01:14;;;;;;;5.80;5.30;;;14.10;99.90;;;;;;4808052;29;20449;-77
2020/12/16 11:03:42;;;;;;;4.90;4.50;;;13.60;99.90;;;;;;4773791;29;20420;-77
2020/12/16 11:06:09;;;;;;;5.27;4.87;;;13.90;99.90;;;;;;4800826;29;20902;-77
2020/12/16 11:08:35;;;;;;;5.67;5.13;;;14.70;99.90;;;;;;4822933;29;20587;-77
2020/12/16 11:11:01;;;;;;;5.40;4.70;;;15.20;99.90;;;;;;4818776;29;20441;-77
2020/12/16 11:13:57;;;;;;;8.13;5.47;;;15.20;99.90;;;;;;4819298;29;20446;-78
2020/12/16 11:16:31;;;;;;;4.53;4.13;;;16.50;99.90;;;;;;4819195;29;20232;-77
2020/12/16 11:18:58;;;;;;;3.87;3.57;;;17.50;99.90;;;;;;4821091;29;20426;-77
2020/12/16 11:21:27;;;;;;;3.60;3.00;;;18.80;99.90;;;;;;4848834;29;20476;-77
2020/12/16 11:23:54;;;;;;;3.50;3.10;;;20.10;99.90;;;;;;4875277;29;20439;-77
2020/12/16 11:26:23;;;;;;;3.60;3.13;;;21.00;99.90;;;;;;4857549;29;21287;-78
2020/12/16 11:28:51;;;;;;;3.43;3.13;;;21.60;99.90;;;;;;4865658;29;20422;-77
2020/12/16 11:31:16;;;;;;;3.60;3.30;;;18.40;99.90;;;;;;4881692;29;20419;-77
2020/12/16 11:34:10;;;;;;;2.63;2.43;;;19.60;99.90;;;;;;4878975;29;20454;-77
2020/12/16 11:36:38;;;;;;;3.30;2.93;;;18.70;99.90;;;;;;4856395;29;20318;-77
2020/12/16 11:39:06;;;;;;;3.03;2.83;;;20.10;99.90;;;;;;4890840;29;20465;-77
2020/12/16 11:41:32;;;;;;;3.20;2.90;;;18.80;99.90;;;;;;4878378;29;20438;-77
2020/12/16 11:43:59;;;;;;;3.57;2.70;;;19.90;99.90;;;;;;4879733;29;20434;-77
2020/12/16 11:46:30;;;;;;;3.17;2.97;;;20.00;99.90;;;;;;4878134;29;20473;-77
2020/12/16 11:49:03;;;;;;;3.20;2.90;;;18.50;99.90;;;;;;4891256;29;20427;-78
2020/12/16 11:51:30;;;;;;;2.70;2.50;;;20.30;99.90;;;;;;4874888;29;21850;-77
2020/12/16 11:54:24;;;;;;;3.80;2.83;;;20.10;99.90;;;;;;4944458;28;20579;-78
2020/12/16 11:56:50;;;;;;;2.70;2.50;;;18.40;99.90;;;;;;4943667;28;20425;-77
2020/12/16 11:59:17;;;;;;;3.00;2.77;;;20.00;99.90;;;;;;4913509;28;20462;-78
2020/12/16 12:02:09;;;;;;;3.10;2.80;;;20.70;99.90;;;;;;4926892;28;20221;-78
2020/12/16 12:04:35;;;;;;;3.20;2.70;;;20.50;99.90;;;;;;4924582;28;20463;-78
2020/12/16 12:07:01;;;;;;;3.30;3.00;;;20.60;99.90;;;;;;4922914;28;20421;-78
2020/12/16 12:09:26;;;;;;;3.47;3.17;;;17.00;99.90;;;;;;4907436;28;20329;-78
2020/12/16 12:11:53;;;;;;;3.50;3.10;;;16.40;99.90;;;;;;4914462;28;20221;-78
2020/12/16 12:14:20;;;;;;;2.73;2.53;;;17.20;99.90;;;;;;4922611;28;20221;-77
2020/12/16 12:16:52;;;;;;;3.07;2.77;;;17.40;99.90;;;;;;4923124;28;20420;-77
2020/12/16 12:19:18;;;;;;;2.33;2.13;;;17.50;99.90;;;;;;4925955;28;20580;-78
2020/12/16 12:21:46;;;;;;;2.77;2.53;;;18.00;99.90;;;;;;4916590;28;20435;-77
2020/12/16 12:24:12;;;;;;;2.43;2.23;;;18.50;99.90;;;;;;4895595;28;20479;-78
2020/12/16 12:26:38;;;;;;;6.23;3.30;;;16.90;99.90;;;;;;4925591;28;20437;-79
2020/12/16 12:29:04;;;;;;;3.87;3.57;;;15.60;99.90;;;;;;4908958;28;20254;-78
2020/12/16 12:31:31;;;;;;;3.63;3.33;;;14.60;99.90;;;;;;4898070;28;20835;-78
2020/12/16 12:33:56;;;;;;;4.17;3.53;;;13.30;99.90;;;;;;4923037;28;20474;-77
2020/12/16 12:36:22;;;;;;;5.87;3.53;;;13.50;99.90;;;;;;4946229;28;20547;-77
2020/12/16 12:38:48;;;;;;;3.87;3.50;;;13.30;99.90;;;;;;4929529;28;20299;-77
2020/12/16 12:41:17;;;;;;;3.07;2.83;;;13.00;99.90;;;;;;4967319;28;20240;-77
2020/12/16 12:43:43;;;;;;;4.83;4.20;;;12.90;99.90;;;;;;5008735;28;20473;-79
2020/12/16 12:46:09;;;;;;;4.60;3.93;;;12.80;99.90;;;;;;5029015;28;20453;-78
2020/12/16 12:48:36;;;;;;;4.13;3.80;;;12.80;99.90;;;;;;5017418;28;20217;-78
2020/12/16 12:51:04;;;;;;;3.93;3.57;;;13.00;99.90;;;;;;5045421;28;20913;-78
2020/12/16 12:53:31;;;;;;;4.37;3.97;;;13.20;99.90;;;;;;5047030;28;20439;-78
2020/12/16 12:55:56;;;;;;;4.80;4.37;;;13.90;99.90;;;;;;5022155;28;20425;-78
2020/12/16 12:58:23;;;;;;;3.53;3.23;;;14.50;99.90;;;;;;5033485;28;20434;-78
2020/12/16 13:00:49;;;;;;;3.77;3.47;;;14.40;99.90;;;;;;5012342;28;20202;-78